createdAt,value
2017-04-12T00:01:12.515Z,9.42
2017-04-12T00:02:33.955Z,9.47
2017-04-12T00:03:56.469Z,9.43
2017-04-12T00:05:18.290Z,9.39
2017-04-12T00:06:40.416Z,9.43
2017-04-12T00:08:02.565Z,9.39
2017-04-12T00:09:24.068Z,9.47
2017-04-12T00:10:45.608Z,9.5
2017-04-12T00:12:07.697Z,9.46
2017-04-12T00:13:29.844Z,9.39
2017-04-12T00:14:51.350Z,9.43
2017-04-12T00:16:13.180Z,9.42
2017-04-12T00:17:35.330Z,9.42
2017-04-12T00:18:57.460Z,9.46
2017-04-12T00:20:19.918Z,9.46
2017-04-12T00:21:42.079Z,9.39
2017-04-12T00:23:03.932Z,9.42
2017-04-12T00:24:25.755Z,9.39
2017-04-12T00:25:47.340Z,9.39
2017-04-12T00:27:08.899Z,9.42
2017-04-12T00:28:30.720Z,9.46
2017-04-12T00:29:52.231Z,9.51
2017-04-12T00:31:14.052Z,9.53
2017-04-12T00:32:36.525Z,9.42
2017-04-12T00:33:58.026Z,9.47
2017-04-12T00:35:20.156Z,9.42
2017-04-12T00:36:42.366Z,9.42
2017-04-12T00:38:04.271Z,9.46
2017-04-12T00:39:26.695Z,9.54
2017-04-12T00:40:48.199Z,9.47
2017-04-12T00:42:09.752Z,9.54
2017-04-12T00:43:32.211Z,9.6
2017-04-12T00:44:54.624Z,9.6
2017-04-12T00:46:16.298Z,9.56
2017-04-12T00:47:38.212Z,9.57
2017-04-12T00:49:00.092Z,9.58
2017-04-12T00:50:22.167Z,9.6
2017-04-12T00:51:43.367Z,9.58
2017-04-12T00:53:05.580Z,9.58
2017-04-12T00:54:27.731Z,9.58
2017-04-12T00:55:50.522Z,9.64
2017-04-12T00:57:12.650Z,9.58
2017-04-12T00:58:34.460Z,9.58
2017-04-12T00:59:56.313Z,9.6
2017-04-12T01:01:18.378Z,9.58
2017-04-12T01:02:40.294Z,9.58
2017-04-12T01:04:02.474Z,9.58
2017-04-12T01:05:24.620Z,9.61
2017-04-12T01:06:46.682Z,9.58
2017-04-12T01:08:08.879Z,9.57
2017-04-12T01:09:30.067Z,9.58
2017-04-12T01:10:51.892Z,9.64
2017-04-12T01:12:13.971Z,9.58
2017-04-12T01:13:36.108Z,9.57
2017-04-12T01:14:58.569Z,9.56
2017-04-12T01:16:20.457Z,9.6
2017-04-12T01:17:42.548Z,9.6
2017-04-12T01:19:04.372Z,9.6
2017-04-12T01:20:26.657Z,9.57
2017-04-12T01:21:48.790Z,9.57
2017-04-12T01:23:10.640Z,9.56
2017-04-12T01:24:32.458Z,9.57
2017-04-12T01:25:54.704Z,9.58
2017-04-12T01:27:16.570Z,9.61
2017-04-12T01:28:38.716Z,9.6
2017-04-12T01:30:01.176Z,9.64
2017-04-12T01:31:23.311Z,9.56
2017-04-12T01:32:45.170Z,9.57
2017-04-12T01:34:07.610Z,9.58
2017-04-12T01:35:29.426Z,9.58
2017-04-12T01:36:51.557Z,9.51
2017-04-12T01:38:13.048Z,9.57
2017-04-12T01:39:35.171Z,9.66
2017-04-12T01:40:56.358Z,9.68
2017-04-12T01:42:18.190Z,9.68
2017-04-12T01:43:40.344Z,9.65
2017-04-12T01:45:02.842Z,9.72
2017-04-12T01:46:24.985Z,9.68
2017-04-12T01:47:46.479Z,9.74
2017-04-12T01:49:08.410Z,9.64
2017-04-12T01:50:30.900Z,9.71
2017-04-12T01:51:52.736Z,9.66
2017-04-12T01:53:14.872Z,9.66
2017-04-12T01:54:36.400Z,9.66
2017-04-12T01:55:58.359Z,9.66
2017-04-12T01:57:20.319Z,9.69
2017-04-12T01:58:42.239Z,9.61
2017-04-12T02:00:04.110Z,9.58
2017-04-12T02:01:26.834Z,9.66
2017-04-12T02:02:48.965Z,9.65
2017-04-12T02:04:11.115Z,9.66
2017-04-12T02:05:33.096Z,9.65
2017-04-12T02:06:55.467Z,9.68
2017-04-12T02:08:17.278Z,9.68
2017-04-12T02:09:39.598Z,9.6
2017-04-12T02:11:01.729Z,9.61
2017-04-12T02:12:23.818Z,9.68
2017-04-12T02:13:45.957Z,9.69
2017-04-12T02:15:07.774Z,9.66
2017-04-12T02:16:29.576Z,9.68
2017-04-12T02:17:51.700Z,9.71
2017-04-12T02:19:13.839Z,9.68
2017-04-12T02:20:35.789Z,9.66
2017-04-12T02:21:58.058Z,9.66
2017-04-12T02:23:19.854Z,9.65
2017-04-12T02:24:41.379Z,9.58
2017-04-12T02:26:02.998Z,9.6
2017-04-12T02:27:24.538Z,9.58
2017-04-12T02:28:46.379Z,9.61
2017-04-12T02:30:08.221Z,9.54
2017-04-12T02:31:30.357Z,9.6
2017-04-12T02:32:52.233Z,9.57
2017-04-12T02:34:14.618Z,9.6
2017-04-12T02:35:36.127Z,9.6
2017-04-12T02:36:58.266Z,9.64
2017-04-12T02:38:20.101Z,9.65
2017-04-12T02:39:42.727Z,9.64
2017-04-12T02:41:04.238Z,9.68
2017-04-12T02:42:26.075Z,9.61
2017-04-12T02:43:47.942Z,9.56
2017-04-12T02:45:10.795Z,9.64
2017-04-12T02:46:32.972Z,9.58
2017-04-12T02:47:54.789Z,9.65
2017-04-12T02:49:17.099Z,9.57
2017-04-12T02:50:39.591Z,9.54
2017-04-12T02:52:01.125Z,9.54
2017-04-12T02:53:23.370Z,9.61
2017-04-12T02:54:45.530Z,9.6
2017-04-12T02:56:08.302Z,9.56
2017-04-12T02:57:30.587Z,9.57
2017-04-12T02:58:52.157Z,9.58
2017-04-12T03:00:14.404Z,9.56
2017-04-12T03:01:36.869Z,9.6
2017-04-12T03:02:59.398Z,9.58
2017-04-12T03:04:20.619Z,9.6
2017-04-12T03:05:42.948Z,9.57
2017-04-12T03:07:04.690Z,9.65
2017-04-12T03:08:26.511Z,9.6
2017-04-12T03:09:48.700Z,9.57
2017-04-12T03:11:11.165Z,9.65
2017-04-12T03:12:33.347Z,9.56
2017-04-12T03:13:55.273Z,9.58
2017-04-12T03:15:17.201Z,9.61
2017-04-12T03:16:39.020Z,9.57
2017-04-12T03:18:00.986Z,9.57
2017-04-12T03:19:22.877Z,9.58
2017-04-12T03:20:45.116Z,9.61
2017-04-12T03:22:07.103Z,9.57
2017-04-12T03:23:28.987Z,9.54
2017-04-12T03:24:50.597Z,9.57
2017-04-12T03:26:12.506Z,9.57
2017-04-12T03:27:34.728Z,9.54
2017-04-12T03:28:56.484Z,9.64
2017-04-12T03:30:18.005Z,9.6
2017-04-12T03:31:39.279Z,9.56
2017-04-12T03:33:01.422Z,9.57
2017-04-12T03:34:23.222Z,9.58
2017-04-12T03:35:45.361Z,9.54
2017-04-12T03:37:06.870Z,9.57
2017-04-12T03:38:29.349Z,9.43
2017-04-12T03:39:51.515Z,9.47
2017-04-12T03:41:13.658Z,9.4
2017-04-12T03:42:35.497Z,9.43
2017-04-12T03:43:57.016Z,9.43
2017-04-12T03:45:18.477Z,9.46
2017-04-12T03:46:40.391Z,9.46
2017-04-12T03:48:01.566Z,9.39
2017-04-12T03:49:22.753Z,9.43
2017-04-12T03:50:44.911Z,9.42
2017-04-12T03:52:06.741Z,9.43
2017-04-12T03:53:29.227Z,9.43
2017-04-12T03:54:50.772Z,9.42
2017-04-12T03:56:12.908Z,9.48
2017-04-12T03:57:35.372Z,9.38
2017-04-12T03:58:57.209Z,9.39
2017-04-12T04:00:19.014Z,9.29
2017-04-12T04:01:41.739Z,9.21
2017-04-12T04:03:03.263Z,9.15
2017-04-12T04:04:25.297Z,9.17
2017-04-12T04:05:46.833Z,9.05
2017-04-12T04:07:08.949Z,9.02
2017-04-12T04:08:30.466Z,9.04
2017-04-12T04:09:52.915Z,9.02
2017-04-12T04:11:14.737Z,8.98
2017-04-12T04:12:36.492Z,9.02
2017-04-12T04:13:58.328Z,9.02
2017-04-12T04:15:20.198Z,9.02
2017-04-12T04:16:42.515Z,9.08
2017-04-12T04:18:04.977Z,8.92
2017-04-12T04:19:26.793Z,8.99
2017-04-12T04:20:48.607Z,8.92
2017-04-12T04:22:10.108Z,8.92
2017-04-12T04:23:31.878Z,8.94
2017-04-12T04:24:54.072Z,8.95
2017-04-12T04:26:15.987Z,8.99
2017-04-12T04:27:37.547Z,8.95
2017-04-12T04:29:00.002Z,8.89
2017-04-12T04:30:21.839Z,8.95
2017-04-12T04:31:44.295Z,8.79
2017-04-12T04:33:05.550Z,8.8
2017-04-12T04:34:27.297Z,8.86
2017-04-12T04:35:48.795Z,8.79
2017-04-12T04:37:10.311Z,8.8
2017-04-12T04:38:31.889Z,8.71
2017-04-12T04:39:53.972Z,8.8
2017-04-12T04:41:16.218Z,8.8
2017-04-12T04:42:38.360Z,8.98
2017-04-12T04:44:00.493Z,9.02
2017-04-12T04:45:22.558Z,9.04
2017-04-12T04:46:44.789Z,9.08
2017-04-12T04:48:06.716Z,9.17
2017-04-12T04:49:28.301Z,9.21
2017-04-12T04:50:50.362Z,9.33
2017-04-12T04:52:12.538Z,9.23
2017-04-12T04:53:34.366Z,9.29
2017-04-12T04:54:56.660Z,9.32
2017-04-12T04:56:19.178Z,9.32
2017-04-12T04:57:41.048Z,9.39
2017-04-12T04:59:03.227Z,9.38
2017-04-12T05:00:24.748Z,9.43
2017-04-12T05:01:46.837Z,9.39
2017-04-12T05:03:08.336Z,9.43
2017-04-12T05:04:30.158Z,9.47
2017-04-12T05:05:51.978Z,9.56
2017-04-12T05:07:14.078Z,9.53
2017-04-12T05:08:35.014Z,9.54
2017-04-12T05:09:57.270Z,9.57
2017-04-12T05:11:19.463Z,9.64
2017-04-12T05:12:41.848Z,9.57
2017-04-12T05:14:03.694Z,9.61
2017-04-12T05:15:25.902Z,9.69
2017-04-12T05:16:48.079Z,9.68
2017-04-12T05:18:10.698Z,9.61
2017-04-12T05:19:32.999Z,9.68
2017-04-12T05:20:55.178Z,9.57
2017-04-12T05:22:16.701Z,9.65
2017-04-12T05:23:39.079Z,9.71
2017-04-12T05:25:00.917Z,9.66
2017-04-12T05:26:23.101Z,9.68
2017-04-12T05:27:45.227Z,9.69
2017-04-12T05:29:07.117Z,9.65
2017-04-12T05:30:29.280Z,9.68
2017-04-12T05:31:51.406Z,9.78
2017-04-12T05:33:12.920Z,9.75
2017-04-12T05:34:35.048Z,9.79
2017-04-12T05:35:56.878Z,9.79
2017-04-12T05:37:19.130Z,9.76
2017-04-12T05:38:41.383Z,9.78
2017-04-12T05:40:03.738Z,9.84
2017-04-12T05:41:25.580Z,9.84
2017-04-12T05:42:47.077Z,9.86
2017-04-12T05:44:09.249Z,9.87
2017-04-12T05:45:31.376Z,9.97
2017-04-12T05:46:52.882Z,9.99
2017-04-12T05:48:14.743Z,10.11
2017-04-12T05:49:36.876Z,10.08
2017-04-12T05:50:59.000Z,10.15
2017-04-12T05:52:21.787Z,10.17
2017-04-12T05:53:43.914Z,10.23
2017-04-12T05:55:05.629Z,10.4
2017-04-12T05:56:27.141Z,10.3
2017-04-12T05:57:49.587Z,10.33
2017-04-12T05:59:12.026Z,10.41
2017-04-12T06:00:34.196Z,10.38
2017-04-12T06:01:56.598Z,10.4
2017-04-12T06:03:18.414Z,10.47
2017-04-12T06:04:39.938Z,10.52
2017-04-12T06:06:01.449Z,10.61
2017-04-12T06:07:23.560Z,10.52
2017-04-12T06:08:45.719Z,10.66
2017-04-12T06:10:07.547Z,10.7
2017-04-12T06:11:29.058Z,10.89
2017-04-12T06:12:50.851Z,10.89
2017-04-12T06:14:13.034Z,11.11
2017-04-12T06:15:34.239Z,11.25
2017-04-12T06:16:56.730Z,11.36
2017-04-12T06:18:19.134Z,11.52
2017-04-12T06:19:40.963Z,11.57
2017-04-12T06:21:03.234Z,11.57
2017-04-12T06:22:25.133Z,11.61
2017-04-12T06:23:47.276Z,11.61
2017-04-12T06:25:09.585Z,11.51
2017-04-12T06:26:31.754Z,11.65
2017-04-12T06:27:53.588Z,11.65
2017-04-12T06:29:15.440Z,11.72
2017-04-12T06:30:37.321Z,11.91
2017-04-12T06:31:58.851Z,12.01
2017-04-12T06:33:20.378Z,12.14
2017-04-12T06:34:42.141Z,12.37
2017-04-12T06:36:04.321Z,12.62
2017-04-12T06:37:26.674Z,13.22
2017-04-12T06:38:48.927Z,13.25
2017-04-12T06:40:11.380Z,13.11
2017-04-12T06:41:33.853Z,13
2017-04-12T06:42:55.689Z,12.87
2017-04-12T06:44:17.245Z,12.54
2017-04-12T06:45:39.139Z,12.34
2017-04-12T06:47:01.278Z,12.07
2017-04-12T06:48:24.127Z,12.05
2017-04-12T06:49:46.284Z,11.95
2017-04-12T06:51:08.828Z,11.86
2017-04-12T06:52:30.652Z,11.85
2017-04-12T06:53:52.610Z,11.72
2017-04-12T06:55:15.116Z,11.75
2017-04-12T06:56:36.932Z,11.8
2017-04-12T06:57:58.777Z,11.86
2017-04-12T06:59:20.723Z,11.72
2017-04-12T07:00:42.628Z,11.86
2017-04-12T07:02:05.495Z,11.86
2017-04-12T07:03:27.417Z,11.9
2017-04-12T07:04:49.588Z,11.86
2017-04-12T07:06:11.118Z,11.88
2017-04-12T07:07:33.650Z,11.86
2017-04-12T07:08:55.853Z,11.95
2017-04-12T07:10:17.382Z,11.99
2017-04-12T07:11:39.529Z,12.02
2017-04-12T07:13:02.287Z,12.07
2017-04-12T07:14:24.197Z,12.16
2017-04-12T07:15:46.666Z,12.16
2017-04-12T07:17:08.320Z,12.23
2017-04-12T07:18:30.853Z,11.99
2017-04-12T07:19:52.807Z,11.98
2017-04-12T07:21:14.689Z,12.04
2017-04-12T07:22:37.290Z,11.78
2017-04-12T07:24:00.115Z,11.88
2017-04-12T07:25:22.698Z,11.91
2017-04-12T07:26:44.849Z,11.86
2017-04-12T07:28:06.227Z,11.96
2017-04-12T07:29:28.681Z,12.01
2017-04-12T07:30:50.499Z,11.99
2017-04-12T07:32:11.709Z,12.02
2017-04-12T07:33:33.559Z,12.05
2017-04-12T07:34:55.628Z,12.28
2017-04-12T07:36:17.169Z,12.39
2017-04-12T07:37:39.649Z,12.38
2017-04-12T07:39:01.788Z,12.54
2017-04-12T07:40:23.617Z,12.41
2017-04-12T07:41:45.508Z,12.37
2017-04-12T07:43:07.649Z,12.28
2017-04-12T07:44:29.836Z,12.19
2017-04-12T07:45:52.361Z,12.14
2017-04-12T07:47:14.833Z,12.16
2017-04-12T07:48:36.998Z,11.99
2017-04-12T07:49:59.468Z,12.02
2017-04-12T07:51:21.698Z,11.96
2017-04-12T07:52:43.853Z,11.96
2017-04-12T07:54:06.390Z,11.98
2017-04-12T07:55:28.855Z,11.9
2017-04-12T07:56:50.996Z,11.86
2017-04-12T07:58:13.182Z,11.9
2017-04-12T07:59:35.020Z,11.85
2017-04-12T08:00:56.840Z,11.85
2017-04-12T08:02:19.388Z,11.94
2017-04-12T08:03:41.550Z,11.99
2017-04-12T08:05:04.128Z,12.14
2017-04-12T08:06:26.593Z,12.29
2017-04-12T08:07:49.045Z,12.31
2017-04-12T08:09:10.551Z,12.31
2017-04-12T08:10:32.452Z,12.29
2017-04-12T08:11:54.595Z,12.41
2017-04-12T08:13:17.352Z,12.32
2017-04-12T08:14:38.889Z,12.41
2017-04-12T08:16:00.813Z,12.56
2017-04-12T08:17:23.324Z,12.77
2017-04-12T08:18:46.029Z,12.97
2017-04-12T08:20:07.849Z,13.08
2017-04-12T08:21:29.986Z,13.15
2017-04-12T08:22:52.504Z,13.28
2017-04-12T08:24:14.931Z,13.25
2017-04-12T08:25:36.148Z,13.25
2017-04-12T08:26:57.999Z,13.1
2017-04-12T08:28:20.171Z,13.05
2017-04-12T08:29:42.999Z,12.93
2017-04-12T08:31:05.156Z,13.03
2017-04-12T08:32:26.984Z,12.75
2017-04-12T08:33:49.196Z,12.68
2017-04-12T08:35:12.067Z,12.59
2017-04-12T08:36:34.545Z,12.49
2017-04-12T08:37:56.168Z,12.39
2017-04-12T08:39:18.030Z,12.35
2017-04-12T08:40:40.746Z,12.29
2017-04-12T08:42:02.557Z,12.28
2017-04-12T08:43:24.534Z,12.19
2017-04-12T08:44:46.719Z,12.16
2017-04-12T08:46:08.986Z,12.17
2017-04-12T08:47:31.145Z,12.2
2017-04-12T08:48:52.970Z,12.19
2017-04-12T08:50:14.498Z,12.29
2017-04-12T08:51:36.691Z,12.41
2017-04-12T08:52:58.922Z,12.6
2017-04-12T08:54:21.377Z,12.74
2017-04-12T08:55:43.551Z,12.89
2017-04-12T08:57:05.964Z,12.97
2017-04-12T08:58:27.785Z,13.2
2017-04-12T08:59:50.017Z,13.29
2017-04-12T09:01:11.917Z,13.3
2017-04-12T09:02:34.312Z,13.11
2017-04-12T09:03:56.806Z,13.11
2017-04-12T09:05:18.373Z,12.97
2017-04-12T09:06:39.278Z,13
2017-04-12T09:08:01.698Z,12.85
2017-04-12T09:09:23.869Z,12.87
2017-04-12T09:10:45.700Z,12.7
2017-04-12T09:12:07.209Z,12.82
2017-04-12T09:13:29.937Z,13
2017-04-12T09:14:51.758Z,13.12
2017-04-12T09:16:13.298Z,13.2
2017-04-12T09:17:35.508Z,13.19
2017-04-12T09:18:58.348Z,13.14
2017-04-12T09:20:20.807Z,13.12
2017-04-12T09:21:42.677Z,13.15
2017-04-12T09:23:05.172Z,13.05
2017-04-12T09:24:26.932Z,13.07
2017-04-12T09:25:49.465Z,13.19
2017-04-12T09:27:11.690Z,13.19
2017-04-12T09:28:34.198Z,13.08
2017-04-12T09:29:56.987Z,13.1
2017-04-12T09:31:19.513Z,13.14
2017-04-12T09:32:42.016Z,13.1
2017-04-12T09:34:03.909Z,13.08
2017-04-12T09:35:26.049Z,13.11
2017-04-12T09:36:48.015Z,13.1
2017-04-12T09:38:10.153Z,13.12
2017-04-12T09:39:32.317Z,13.1
2017-04-12T09:40:54.180Z,13.22
2017-04-12T09:42:15.717Z,13.32
2017-04-12T09:43:37.907Z,13.23
2017-04-12T09:45:00.382Z,13.12
2017-04-12T09:46:22.908Z,12.95
2017-04-12T09:47:45.089Z,12.79
2017-04-12T09:49:06.611Z,12.72
2017-04-12T09:50:28.127Z,12.67
2017-04-12T09:51:50.900Z,12.6
2017-04-12T09:53:13.033Z,12.68
2017-04-12T09:54:35.201Z,12.64
2017-04-12T09:55:57.421Z,12.65
2017-04-12T09:57:19.872Z,12.71
2017-04-12T09:58:41.813Z,12.85
2017-04-12T10:00:03.643Z,12.87
2017-04-12T10:01:25.545Z,13.14
2017-04-12T10:02:47.654Z,13.46
2017-04-12T10:04:09.489Z,13.55
2017-04-12T10:05:31.419Z,13.46
2017-04-12T10:06:54.670Z,13.48
2017-04-12T10:08:16.897Z,13.46
2017-04-12T10:09:38.718Z,13.57
2017-04-12T10:11:00.213Z,13.96
2017-04-12T10:12:22.055Z,14.15
2017-04-12T10:13:43.880Z,14.24
2017-04-12T10:15:05.421Z,14.15
2017-04-12T10:16:27.583Z,14.04
2017-04-12T10:17:49.468Z,13.7
2017-04-12T10:19:12.211Z,13.44
2017-04-12T10:20:34.406Z,13.32
2017-04-12T10:21:56.579Z,13.1
2017-04-12T10:23:18.426Z,12.97
2017-04-12T10:24:40.868Z,12.86
2017-04-12T10:26:03.150Z,12.85
2017-04-12T10:27:24.666Z,12.82
2017-04-12T10:28:46.197Z,12.7
2017-04-12T10:30:08.358Z,12.59
2017-04-12T10:31:30.502Z,12.6
2017-04-12T10:32:52.319Z,12.57
2017-04-12T10:34:14.158Z,12.53
2017-04-12T10:35:36.608Z,12.53
2017-04-12T10:36:58.817Z,12.54
2017-04-12T10:38:20.329Z,12.56
2017-04-12T10:39:42.798Z,12.65
2017-04-12T10:41:04.915Z,12.65
2017-04-12T10:42:27.081Z,12.77
2017-04-12T10:43:48.597Z,12.9
2017-04-12T10:45:10.426Z,13.03
2017-04-12T10:46:32.516Z,13.1
2017-04-12T10:47:54.337Z,13.32
2017-04-12T10:49:16.486Z,13.2
2017-04-12T10:50:38.942Z,13.1
2017-04-12T10:52:01.690Z,13.14
2017-04-12T10:53:24.167Z,13.05
2017-04-12T10:54:46.314Z,13
2017-04-12T10:56:08.497Z,12.87
2017-04-12T10:57:31.060Z,12.79
2017-04-12T10:58:52.874Z,12.77
2017-04-12T11:00:15.060Z,12.74
2017-04-12T11:01:37.525Z,12.71
2017-04-12T11:02:59.674Z,12.64
2017-04-12T11:04:21.178Z,12.6
2017-04-12T11:05:43.392Z,12.59
2017-04-12T11:07:05.235Z,12.59
2017-04-12T11:08:27.717Z,12.6
2017-04-12T11:09:49.917Z,12.62
2017-04-12T11:11:12.375Z,12.62
2017-04-12T11:12:34.545Z,12.57
2017-04-12T11:13:56.649Z,12.7
2017-04-12T11:15:18.505Z,12.68
2017-04-12T11:16:40.328Z,12.54
2017-04-12T11:18:02.145Z,12.52
2017-04-12T11:19:24.928Z,12.53
2017-04-12T11:20:47.056Z,12.53
2017-04-12T11:22:09.298Z,12.45
2017-04-12T11:23:31.459Z,12.38
2017-04-12T11:24:54.252Z,12.42
2017-04-12T11:26:16.770Z,12.47
2017-04-12T11:27:38.739Z,12.37
2017-04-12T11:29:01.238Z,12.39
2017-04-12T11:30:24.042Z,12.45
2017-04-12T11:31:46.208Z,12.45
2017-04-12T11:33:08.055Z,12.41
2017-04-12T11:34:30.514Z,12.47
2017-04-12T11:35:53.253Z,12.53
2017-04-12T11:37:15.422Z,12.49
2017-04-12T11:38:37.649Z,12.42
2017-04-12T11:39:59.476Z,12.54
2017-04-12T11:41:22.206Z,12.56
2017-04-12T11:42:44.051Z,12.53
2017-04-12T11:44:05.923Z,12.52
2017-04-12T11:45:27.726Z,12.54
2017-04-12T11:46:49.872Z,12.53
2017-04-12T11:48:11.414Z,12.53
2017-04-12T11:49:33.919Z,12.56
2017-04-12T11:50:55.764Z,12.71
2017-04-12T11:52:17.946Z,12.67
2017-04-12T11:53:40.104Z,12.67
2017-04-12T11:55:02.275Z,12.7
2017-04-12T11:56:24.746Z,12.59
2017-04-12T11:57:47.215Z,12.54
2017-04-12T11:59:09.716Z,12.54
2017-04-12T12:00:31.876Z,12.54
2017-04-12T12:01:54.036Z,12.35
2017-04-12T12:03:16.326Z,12.28
2017-04-12T12:04:38.179Z,12.28
2017-04-12T12:05:59.739Z,12.2
2017-04-12T12:07:21.980Z,12.27
2017-04-12T12:08:43.743Z,12.21
2017-04-12T12:10:05.592Z,12.07
2017-04-12T12:11:27.433Z,12.07
2017-04-12T12:12:49.344Z,11.98
2017-04-12T12:14:11.166Z,12.01
2017-04-12T12:15:32.686Z,12.01
2017-04-12T12:16:55.148Z,11.95
2017-04-12T12:18:17.325Z,11.98
2017-04-12T12:19:39.935Z,12.07
2017-04-12T12:21:01.798Z,12.21
2017-04-12T12:22:24.297Z,12.23
2017-04-12T12:23:45.829Z,12.21
2017-04-12T12:25:08.279Z,12.24
2017-04-12T12:26:29.786Z,12.24
2017-04-12T12:27:51.969Z,12.31
2017-04-12T12:29:13.519Z,12.35
2017-04-12T12:30:36.512Z,12.41
2017-04-12T12:31:58.706Z,12.49
2017-04-12T12:33:20.555Z,12.53
2017-04-12T12:34:43.049Z,12.49
2017-04-12T12:36:05.896Z,12.5
2017-04-12T12:37:28.056Z,12.56
2017-04-12T12:38:50.586Z,12.5
2017-04-12T12:40:12.816Z,12.5
2017-04-12T12:41:34.277Z,12.49
2017-04-12T12:42:56.421Z,12.6
2017-04-12T12:44:18.355Z,12.59
2017-04-12T12:45:39.867Z,12.57
2017-04-12T12:47:02.278Z,12.56
2017-04-12T12:48:24.147Z,12.59
2017-04-12T12:49:45.366Z,12.57
2017-04-12T12:51:06.897Z,12.56
2017-04-12T12:52:29.035Z,12.56
2017-04-12T12:53:50.874Z,12.34
2017-04-12T12:55:12.751Z,12.2
2017-04-12T12:56:34.681Z,12.1
2017-04-12T12:57:56.917Z,12.1
2017-04-12T12:59:19.439Z,12.01
2017-04-12T13:00:41.416Z,11.9
2017-04-12T13:02:03.900Z,11.73
2017-04-12T13:03:26.614Z,11.75
2017-04-12T13:04:48.781Z,11.78
2017-04-12T13:06:10.296Z,11.73
2017-04-12T13:07:31.845Z,11.91
2017-04-12T13:08:54.107Z,12.02
2017-04-12T13:10:16.270Z,12.12
2017-04-12T13:11:38.765Z,12.01
2017-04-12T13:13:00.626Z,11.98
2017-04-12T13:14:23.092Z,11.91
2017-04-12T13:15:44.850Z,11.82
2017-04-12T13:17:06.663Z,11.73
2017-04-12T13:18:28.283Z,11.64
2017-04-12T13:19:51.109Z,11.55
2017-04-12T13:21:13.366Z,11.61
2017-04-12T13:22:35.543Z,11.54
2017-04-12T13:23:57.749Z,11.55
2017-04-12T13:25:20.237Z,11.42
2017-04-12T13:26:42.448Z,11.49
2017-04-12T13:28:04.639Z,11.35
2017-04-12T13:29:26.813Z,11.35
2017-04-12T13:30:48.946Z,11.43
2017-04-12T13:32:11.126Z,11.36
2017-04-12T13:33:33.753Z,11.32
2017-04-12T13:34:56.253Z,11.35
2017-04-12T13:36:19.158Z,11.33
2017-04-12T13:37:41.376Z,11.47
2017-04-12T13:39:02.998Z,11.47
2017-04-12T13:40:25.487Z,11.47
2017-04-12T13:41:47.950Z,11.37
2017-04-12T13:43:09.467Z,11.36
2017-04-12T13:44:31.046Z,11.36
2017-04-12T13:45:52.909Z,11.36
2017-04-12T13:47:15.080Z,11.32
2017-04-12T13:48:37.234Z,11.36
2017-04-12T13:49:59.711Z,11.24
2017-04-12T13:51:21.636Z,11.28
2017-04-12T13:52:43.748Z,11.27
2017-04-12T13:54:05.947Z,11.17
2017-04-12T13:55:27.515Z,11.15
2017-04-12T13:56:49.697Z,10.99
2017-04-12T13:58:11.917Z,11.06
2017-04-12T13:59:34.092Z,11.02
2017-04-12T14:00:55.643Z,11.02
2017-04-12T14:02:17.818Z,11.02
2017-04-12T14:03:40.577Z,11.09
2017-04-12T14:05:02.749Z,11.11
2017-04-12T14:06:24.587Z,11.17
2017-04-12T14:07:46.335Z,11.19
2017-04-12T14:09:08.755Z,11.24
2017-04-12T14:10:30.923Z,11.24
2017-04-12T14:11:52.778Z,11.39
2017-04-12T14:13:15.356Z,11.35
2017-04-12T14:14:38.137Z,11.27
2017-04-12T14:16:00.629Z,11.24
2017-04-12T14:17:23.106Z,11.37
2017-04-12T14:18:44.984Z,11.25
2017-04-12T14:20:07.296Z,11.15
2017-04-12T14:21:29.857Z,11.14
2017-04-12T14:22:52.028Z,11.14
2017-04-12T14:24:14.509Z,11.21
2017-04-12T14:25:36.951Z,11.18
2017-04-12T14:26:59.097Z,11.19
2017-04-12T14:28:21.378Z,11.17
2017-04-12T14:29:42.957Z,11.18
2017-04-12T14:31:05.908Z,11.28
2017-04-12T14:32:28.402Z,11.25
2017-04-12T14:33:50.890Z,11.36
2017-04-12T14:35:13.378Z,11.27
2017-04-12T14:36:36.277Z,11.27
2017-04-12T14:37:58.159Z,11.29
2017-04-12T14:39:20.019Z,11.21
2017-04-12T14:40:42.186Z,11.22
2017-04-12T14:42:04.489Z,11.27
2017-04-12T14:43:26.017Z,11.29
2017-04-12T14:44:47.890Z,11.28
2017-04-12T14:46:10.178Z,11.36
2017-04-12T14:47:32.629Z,11.29
2017-04-12T14:48:54.789Z,11.24
2017-04-12T14:50:17.289Z,11.22
2017-04-12T14:51:39.448Z,11.28
2017-04-12T14:53:02.350Z,11.32
2017-04-12T14:54:24.592Z,11.29
2017-04-12T14:55:46.769Z,11.28
2017-04-12T14:57:09.276Z,11.32
2017-04-12T14:58:31.762Z,11.25
2017-04-12T14:59:53.600Z,11.25
2017-04-12T15:01:15.555Z,11.28
2017-04-12T15:02:37.724Z,11.27
2017-04-12T15:04:00.055Z,11.28
2017-04-12T15:05:22.259Z,11.33
2017-04-12T15:06:44.744Z,11.39
2017-04-12T15:08:07.259Z,11.32
2017-04-12T15:09:30.059Z,11.29
2017-04-12T15:10:51.576Z,11.28
2017-04-12T15:12:13.867Z,11.36
2017-04-12T15:13:35.726Z,11.36
2017-04-12T15:14:57.729Z,11.42
2017-04-12T15:16:19.949Z,11.49
2017-04-12T15:17:41.795Z,11.51
2017-04-12T15:19:04.300Z,11.58
2017-04-12T15:20:26.126Z,11.55
2017-04-12T15:21:48.525Z,11.6
2017-04-12T15:23:10.396Z,11.58
2017-04-12T15:24:32.067Z,11.49
2017-04-12T15:25:53.904Z,11.42
2017-04-12T15:27:16.239Z,11.32
2017-04-12T15:28:38.735Z,11.32
2017-04-12T15:30:00.895Z,11.35
2017-04-12T15:31:23.509Z,11.33
2017-04-12T15:32:45.666Z,11.33
2017-04-12T15:34:07.826Z,11.37
2017-04-12T15:35:30.450Z,11.57
2017-04-12T15:36:52.903Z,11.67
2017-04-12T15:38:14.449Z,11.62
2017-04-12T15:39:36.916Z,11.85
2017-04-12T15:40:59.115Z,11.91
2017-04-12T15:42:21.662Z,11.78
2017-04-12T15:43:44.147Z,11.76
2017-04-12T15:45:06.170Z,11.65
2017-04-12T15:46:28.022Z,11.54
2017-04-12T15:47:50.853Z,11.36
2017-04-12T15:49:13.477Z,11.28
2017-04-12T15:50:35.646Z,11.18
2017-04-12T15:51:58.182Z,11.02
2017-04-12T15:53:20.652Z,10.91
2017-04-12T15:54:42.840Z,10.81
2017-04-12T15:56:05.007Z,10.84
2017-04-12T15:57:26.551Z,10.74
2017-04-12T15:58:49.287Z,10.71
2017-04-12T16:00:11.800Z,10.74
2017-04-12T16:01:34.296Z,10.64
2017-04-12T16:02:56.793Z,10.59
2017-04-12T16:04:19.058Z,10.61
2017-04-12T16:05:41.557Z,10.61
2017-04-12T16:07:03.075Z,10.48
2017-04-12T16:08:24.928Z,10.55
2017-04-12T16:09:47.100Z,10.45
2017-04-12T16:11:08.699Z,10.4
2017-04-12T16:12:31.213Z,10.42
2017-04-12T16:13:53.399Z,10.42
2017-04-12T16:15:15.520Z,10.42
2017-04-12T16:16:37.363Z,10.38
2017-04-12T16:17:59.235Z,10.29
2017-04-12T16:19:20.585Z,10.3
2017-04-12T16:20:43.358Z,10.36
2017-04-12T16:22:05.976Z,10.4
2017-04-12T16:23:27.828Z,10.4
2017-04-12T16:24:50.004Z,10.47
2017-04-12T16:26:12.464Z,10.4
2017-04-12T16:27:34.720Z,10.45
2017-04-12T16:28:57.201Z,10.52
2017-04-12T16:30:19.849Z,10.42
2017-04-12T16:31:41.991Z,10.6
2017-04-12T16:33:03.929Z,10.51
2017-04-12T16:34:26.645Z,10.52
2017-04-12T16:35:48.611Z,10.51
2017-04-12T16:37:10.797Z,10.63
2017-04-12T16:38:32.961Z,10.63
2017-04-12T16:39:55.155Z,10.66
2017-04-12T16:41:17.726Z,10.66
2017-04-12T16:42:40.493Z,10.56
2017-04-12T16:44:02.348Z,10.53
2017-04-12T16:45:24.829Z,10.42
2017-04-12T16:46:47.430Z,10.41
2017-04-12T16:48:10.253Z,10.27
2017-04-12T16:49:32.271Z,10.25
2017-04-12T16:50:54.816Z,10.15
2017-04-12T16:52:16.695Z,10.07
2017-04-12T16:53:38.490Z,10.14
2017-04-12T16:55:00.641Z,10.09
2017-04-12T16:56:22.791Z,10.11
2017-04-12T16:57:45.376Z,10.08
2017-04-12T16:59:07.987Z,10.11
2017-04-12T17:00:30.627Z,10.12
2017-04-12T17:01:52.918Z,10.09
2017-04-12T17:03:15.089Z,10.14
2017-04-12T17:04:37.549Z,10.04
2017-04-12T17:06:00.266Z,9.97
2017-04-12T17:07:22.187Z,9.96
2017-04-12T17:08:44.115Z,9.84
2017-04-12T17:10:06.862Z,9.86
2017-04-12T17:11:29.029Z,9.86
2017-04-12T17:12:51.580Z,9.76
2017-04-12T17:14:13.798Z,9.76
2017-04-12T17:15:35.979Z,9.81
2017-04-12T17:16:58.552Z,9.81
2017-04-12T17:18:20.733Z,9.84
2017-04-12T17:19:42.937Z,9.87
2017-04-12T17:21:05.416Z,9.84
2017-04-12T17:22:27.602Z,9.83
2017-04-12T17:23:49.975Z,9.79
2017-04-12T17:25:12.186Z,9.78
2017-04-12T17:26:35.196Z,9.79
2017-04-12T17:27:57.121Z,9.75
2017-04-12T17:29:19.362Z,9.78
2017-04-12T17:30:41.519Z,9.78
2017-04-12T17:32:04.416Z,9.72
2017-04-12T17:33:27.004Z,9.75
2017-04-12T17:34:49.179Z,9.74
2017-04-12T17:36:11.760Z,9.81
2017-04-12T17:37:34.580Z,9.81
2017-04-12T17:38:56.763Z,9.78
2017-04-12T17:40:18.650Z,9.76
2017-04-12T17:41:41.155Z,9.74
2017-04-12T17:43:03.375Z,9.74
2017-04-12T17:44:25.889Z,9.76
2017-04-12T17:45:48.058Z,9.76
2017-04-12T17:47:10.557Z,9.71
2017-04-12T17:48:33.061Z,9.6
2017-04-12T17:49:55.249Z,9.58
2017-04-12T17:51:18.066Z,9.58
2017-04-12T17:52:40.580Z,9.53
2017-04-12T17:54:03.102Z,9.48